Time;durP1;ratioP1;P1;durP2;ratioP2;P2;SDS_P1;SDS_P2;PMS_P1;PMS_P2;Temp;Humidity;BMP_temperature;BMP_pressure;BME280_temperature;BME280_humidity;BME280_pressure;Samples;Min_cycle;Max_cycle;Signal;HPM_P1;HPM_P2
2021/01/15 00:01:09;;;;;;;7.10;2.97;;;0.60;99.90;;;;;;5076744;28;20123;-80
2021/01/15 00:03:35;;;;;;;5.80;3.30;;;0.60;99.90;;;;;;5072142;28;20028;-79
2021/01/15 00:06:07;;;;;;;5.60;2.70;;;0.60;99.90;;;;;;5058966;28;20025;-79
2021/01/15 00:08:42;;;;;;;6.15;2.22;;;0.60;99.90;;;;;;5083628;28;20028;-79
2021/01/15 00:11:39;;;;;;;5.10;2.78;;;0.60;99.90;;;;;;5077453;28;20469;-78
2021/01/15 00:14:08;;;;;;;6.22;2.60;;;0.60;99.90;;;;;;5063504;28;20036;-79
2021/01/15 00:16:33;;;;;;;5.13;2.88;;;0.50;99.90;;;;;;5088567;28;20032;-79
2021/01/15 00:19:01;;;;;;;5.18;2.60;;;0.50;99.90;;;;;;5076759;28;20024;-79
2021/01/15 00:21:33;;;;;;;4.47;2.70;;;0.50;99.90;;;;;;5053843;28;20032;-79
2021/01/15 00:24:00;;;;;;;5.05;2.35;;;0.50;99.90;;;;;;5075531;28;20101;-79
2021/01/15 00:26:27;;;;;;;5.18;2.58;;;0.40;99.90;;;;;;5073258;28;20040;-79
2021/01/15 00:28:57;;;;;;;6.50;2.75;;;0.40;99.90;;;;;;5075109;28;20067;-79
2021/01/15 00:31:33;;;;;;;4.90;2.50;;;0.40;99.90;;;;;;5076086;28;20515;-79
2021/01/15 00:34:01;;;;;;;5.93;2.50;;;0.40;99.90;;;;;;5076175;28;20050;-79
2021/01/15 00:36:31;;;;;;;7.10;2.67;;;0.40;99.90;;;;;;5075277;28;20024;-79
2021/01/15 00:38:57;;;;;;;7.35;3.13;;;0.40;99.90;;;;;;5073463;28;20150;-80
2021/01/15 00:41:23;;;;;;;5.93;2.70;;;0.40;99.90;;;;;;5076060;28;20058;-79
2021/01/15 00:43:50;;;;;;;5.30;2.60;;;0.30;99.90;;;;;;5075928;28;20034;-79
2021/01/15 00:46:31;;;;;;;5.63;2.88;;;0.30;99.90;;;;;;5072342;28;20032;-79
2021/01/15 00:49:04;;;;;;;8.10;3.78;;;0.30;99.90;;;;;;5074406;28;20024;-79
2021/01/15 00:51:30;;;;;;;6.22;3.00;;;0.30;99.90;;;;;;5086459;28;20594;-79
2021/01/15 00:54:01;;;;;;;6.50;2.80;;;0.20;99.90;;;;;;5077056;28;20055;-79
2021/01/15 00:56:27;;;;;;;6.95;2.83;;;0.30;99.90;;;;;;5073882;28;20043;-79
2021/01/15 00:58:52;;;;;;;5.97;2.92;;;0.20;99.90;;;;;;5076474;28;20032;-79
2021/01/15 01:01:23;;;;;;;5.78;2.80;;;0.20;99.90;;;;;;5063073;28;20031;-78
2021/01/15 01:03:51;;;;;;;7.57;2.97;;;0.10;99.90;;;;;;5075170;28;20023;-79
2021/01/15 01:06:18;;;;;;;6.53;2.70;;;0.10;99.90;;;;;;5074710;28;20107;-79
2021/01/15 01:08:44;;;;;;;5.82;2.50;;;0.20;99.90;;;;;;5069649;28;20028;-79
2021/01/15 01:11:13;;;;;;;4.85;2.55;;;0.10;99.90;;;;;;5077247;28;20088;-78
2021/01/15 01:13:39;;;;;;;6.35;2.78;;;0.10;99.90;;;;;;5052444;28;20032;-79
2021/01/15 01:16:07;;;;;;;5.95;2.70;;;0.00;99.90;;;;;;5074476;28;20114;-78
2021/01/15 01:18:36;;;;;;;3.60;2.15;;;0.10;99.90;;;;;;5070255;28;20032;-79
2021/01/15 01:21:05;;;;;;;5.40;2.40;;;0.10;99.90;;;;;;5075312;28;20538;-79
2021/01/15 01:23:30;;;;;;;3.97;2.22;;;0.00;99.90;;;;;;5056874;28;20024;-79
2021/01/15 01:25:56;;;;;;;6.43;2.60;;;-0.10;99.90;;;;;;5062084;28;20097;-79
2021/01/15 01:28:22;;;;;;;4.60;2.20;;;-0.10;99.90;;;;;;5076648;28;20099;-79
2021/01/15 01:30:49;;;;;;;5.68;2.20;;;-0.10;99.90;;;;;;5074051;28;20390;-78
2021/01/15 01:33:17;;;;;;;4.70;2.15;;;-0.10;99.90;;;;;;5075731;28;20075;-79
2021/01/15 01:35:45;;;;;;;4.40;2.13;;;-0.20;99.90;;;;;;5073699;28;20105;-79
2021/01/15 01:38:13;;;;;;;4.55;2.50;;;-0.20;99.90;;;;;;5074781;28;20043;-78
2021/01/15 01:40:38;;;;;;;4.43;2.25;;;-0.10;99.90;;;;;;5074685;28;20462;-79
2021/01/15 01:43:04;;;;;;;5.07;2.15;;;-0.10;99.90;;;;;;5075398;28;20043;-79
2021/01/15 01:45:33;;;;;;;4.72;2.03;;;-0.10;99.90;;;;;;5073735;28;20130;-79
2021/01/15 01:48:01;;;;;;;5.60;2.25;;;-0.10;99.90;;;;;;5076013;28;20039;-78
2021/01/15 01:50:29;;;;;;;4.07;2.15;;;-0.10;99.90;;;;;;5071772;28;20025;-79
2021/01/15 01:53:03;;;;;;;4.20;2.25;;;0.00;99.90;;;;;;5074254;28;20086;-78
2021/01/15 01:55:30;;;;;;;5.75;2.20;;;-0.10;99.90;;;;;;5060981;28;20357;-79
2021/01/15 01:57:59;;;;;;;6.38;2.20;;;-0.10;99.90;;;;;;5072975;28;20717;-79
2021/01/15 02:00:27;;;;;;;4.20;2.13;;;-0.10;99.90;;;;;;5057669;28;20020;-78
2021/01/15 02:02:52;;;;;;;4.80;2.15;;;-0.20;99.90;;;;;;5070836;28;20448;-79
2021/01/15 02:05:18;;;;;;;4.88;2.20;;;-0.20;99.90;;;;;;5074951;28;20039;-79
2021/01/15 02:07:48;;;;;;;5.75;2.50;;;-0.20;99.90;;;;;;5073771;28;20109;-79
2021/01/15 02:10:39;;;;;;;5.47;2.55;;;-0.20;99.90;;;;;;5081693;28;20123;-78
2021/01/15 02:13:21;;;;;;;3.75;2.10;;;-0.10;99.90;;;;;;5075492;28;20032;-78
2021/01/15 02:15:51;;;;;;;4.43;2.40;;;-0.20;99.90;;;;;;5053145;28;20027;-79
2021/01/15 02:18:31;;;;;;;4.20;2.33;;;-0.10;99.90;;;;;;5060240;28;20043;-79
2021/01/15 02:21:34;;;;;;;8.43;2.50;;;-0.20;99.90;;;;;;5065148;28;20392;-79
2021/01/15 02:24:11;;;;;;;4.47;2.20;;;-0.20;99.90;;;;;;5074840;28;20140;-79
2021/01/15 02:27:00;;;;;;;5.30;2.55;;;-0.20;99.90;;;;;;5071852;28;20126;-78
2021/01/15 02:29:30;;;;;;;5.47;2.42;;;-0.20;99.90;;;;;;5061041;28;20044;-78
2021/01/15 02:32:19;;;;;;;4.10;2.20;;;-0.20;99.90;;;;;;5072511;28;20134;-78
2021/01/15 02:34:48;;;;;;;4.43;2.30;;;-0.20;99.90;;;;;;5074591;28;20032;-79
2021/01/15 02:37:58;;;;;;;4.63;2.30;;;-0.30;99.90;;;;;;5075025;28;20654;-78
2021/01/15 02:40:28;;;;;;;5.10;2.45;;;-0.30;99.90;;;;;;4998933;28;20038;-78
2021/01/15 02:42:54;;;;;;;5.38;2.53;;;-0.30;99.90;;;;;;4981209;28;20080;-79
2021/01/15 02:45:20;;;;;;;4.65;2.30;;;-0.20;99.90;;;;;;4980819;28;20185;-78
2021/01/15 02:47:47;;;;;;;4.60;2.13;;;-0.30;99.90;;;;;;4980451;28;20430;-78
2021/01/15 02:50:21;;;;;;;4.63;2.33;;;-0.20;99.90;;;;;;4998650;28;20148;-78
2021/01/15 02:52:47;;;;;;;4.72;2.30;;;-0.20;99.90;;;;;;4984239;28;20038;-78
2021/01/15 02:55:15;;;;;;;5.95;2.40;;;-0.20;99.90;;;;;;4984991;28;20076;-79
2021/01/15 02:57:43;;;;;;;4.43;2.30;;;-0.20;99.90;;;;;;4981309;28;20042;-78
2021/01/15 03:00:14;;;;;;;7.63;2.60;;;-0.20;99.90;;;;;;4995524;28;20121;-79
2021/01/15 03:02:56;;;;;;;5.40;2.70;;;-0.20;99.90;;;;;;4982109;28;20034;-78
2021/01/15 03:05:40;;;;;;;6.00;2.88;;;-0.20;99.90;;;;;;4994713;28;20121;-79
2021/01/15 03:08:06;;;;;;;5.00;3.08;;;-0.30;99.90;;;;;;4987559;28;20034;-78
2021/01/15 03:10:33;;;;;;;6.10;3.97;;;-0.30;99.90;;;;;;4994991;28;20036;-79
2021/01/15 03:13:01;;;;;;;9.60;5.20;;;-0.30;99.90;;;;;;5055166;28;20042;-79
2021/01/15 03:15:27;;;;;;;9.07;5.20;;;-0.40;99.90;;;;;;5068668;28;20017;-79
2021/01/15 03:17:58;;;;;;;8.55;5.63;;;-0.40;99.90;;;;;;5075488;28;20028;-79
2021/01/15 03:20:26;;;;;;;10.82;6.00;;;-0.40;99.90;;;;;;5076598;28;20035;-79
2021/01/15 03:22:51;;;;;;;11.10;6.60;;;-0.40;99.90;;;;;;5077133;27;20032;-79
2021/01/15 03:25:22;;;;;;;11.13;6.50;;;-0.40;99.90;;;;;;5057682;28;20097;-79
2021/01/15 03:27:48;;;;;;;11.43;6.88;;;-0.40;99.90;;;;;;5054900;28;20065;-79
2021/01/15 03:30:24;;;;;;;10.55;6.55;;;-0.30;99.90;;;;;;5077788;28;20035;-79
2021/01/15 03:32:52;;;;;;;12.88;7.00;;;-0.30;99.90;;;;;;5077688;28;20028;-78
2021/01/15 03:35:26;;;;;;;12.80;7.60;;;-0.30;99.90;;;;;;5077674;28;20019;-79
2021/01/15 03:38:00;;;;;;;14.73;8.27;;;-0.30;99.90;;;;;;5076564;28;20302;-79
2021/01/15 03:40:29;;;;;;;12.02;8.00;;;-0.30;99.90;;;;;;5064298;28;20449;-79
2021/01/15 03:43:00;;;;;;;12.18;7.60;;;-0.30;99.90;;;;;;5064413;28;20093;-79
2021/01/15 03:45:28;;;;;;;13.73;8.20;;;-0.30;99.90;;;;;;5077968;28;20518;-79
2021/01/15 03:47:58;;;;;;;14.15;7.82;;;-0.20;99.90;;;;;;5076373;28;20044;-79
2021/01/15 03:50:24;;;;;;;14.98;8.50;;;-0.20;99.90;;;;;;5076283;28;20035;-79
2021/01/15 03:52:54;;;;;;;14.02;8.38;;;-0.20;99.90;;;;;;5077579;28;20369;-79
2021/01/15 03:55:20;;;;;;;13.38;8.40;;;-0.10;99.90;;;;;;5077557;28;20113;-79
2021/01/15 03:57:48;;;;;;;15.60;8.80;;;-0.10;99.90;;;;;;5076726;28;20028;-79
2021/01/15 04:00:14;;;;;;;13.82;8.48;;;-0.10;99.90;;;;;;5077116;28;20039;-79
2021/01/15 04:02:44;;;;;;;13.82;8.20;;;-0.10;99.90;;;;;;5076859;28;20484;-79
2021/01/15 04:05:13;;;;;;;13.45;7.80;;;-0.10;99.90;;;;;;5078706;28;21556;-79
2021/01/15 04:07:44;;;;;;;12.40;7.60;;;-0.10;99.90;;;;;;5060682;28;20024;-80
2021/01/15 04:10:12;;;;;;;13.68;8.50;;;-0.10;99.90;;;;;;5065019;28;20040;-79
2021/01/15 04:12:43;;;;;;;12.45;7.68;;;0.00;99.90;;;;;;5075337;28;20635;-80
2021/01/15 04:15:11;;;;;;;13.88;8.00;;;0.00;99.90;;;;;;5050736;28;20056;-80
2021/01/15 04:17:42;;;;;;;12.55;7.50;;;0.00;99.90;;;;;;5069294;28;20032;-80
2021/01/15 04:20:11;;;;;;;12.38;7.10;;;0.10;99.90;;;;;;5075516;28;20101;-80
2021/01/15 04:22:38;;;;;;;12.40;7.45;;;0.10;99.90;;;;;;5057958;28;20123;-80
2021/01/15 04:25:06;;;;;;;11.15;6.97;;;0.10;99.90;;;;;;5077934;28;20462;-79
2021/01/15 04:27:36;;;;;;;11.10;6.90;;;0.10;99.90;;;;;;5074380;28;20106;-79
2021/01/15 04:30:07;;;;;;;9.52;6.07;;;0.20;99.90;;;;;;5065287;28;20108;-79
2021/01/15 04:32:33;;;;;;;8.77;5.55;;;0.10;99.90;;;;;;5073957;28;20159;-79
2021/01/15 04:35:03;;;;;;;11.55;6.60;;;0.10;99.90;;;;;;5077022;28;20465;-80
2021/01/15 04:37:28;;;;;;;12.32;7.40;;;0.20;99.90;;;;;;5076498;28;20030;-80
2021/01/15 04:39:56;;;;;;;11.60;7.03;;;0.20;99.90;;;;;;5073620;28;20033;-79
2021/01/15 04:42:26;;;;;;;11.60;7.55;;;0.20;99.90;;;;;;5075644;28;20039;-80
2021/01/15 04:44:51;;;;;;;13.20;7.60;;;0.20;99.90;;;;;;5076652;28;20024;-80
2021/01/15 04:47:17;;;;;;;14.82;8.13;;;0.20;99.90;;;;;;5075981;28;20699;-80
2021/01/15 04:49:45;;;;;;;13.23;8.10;;;0.20;99.90;;;;;;5074674;28;20218;-80
2021/01/15 04:52:14;;;;;;;12.10;7.70;;;0.10;99.90;;;;;;5063451;28;20028;-80
2021/01/15 04:54:41;;;;;;;13.52;8.10;;;0.10;99.90;;;;;;5075524;28;20380;-80
2021/01/15 04:57:08;;;;;;;12.45;7.72;;;0.10;99.90;;;;;;5070018;28;20565;-81
2021/01/15 04:59:39;;;;;;;15.10;8.98;;;0.20;99.90;;;;;;5074165;28;20032;-80
2021/01/15 05:02:12;;;;;;;11.45;7.28;;;0.20;99.90;;;;;;5069612;28;20056;-80
2021/01/15 05:04:40;;;;;;;14.23;8.30;;;0.20;99.90;;;;;;5075684;27;20054;-80
2021/01/15 05:07:07;;;;;;;14.65;8.80;;;0.20;99.90;;;;;;5075040;28;20038;-80
2021/01/15 05:09:45;;;;;;;14.80;8.70;;;0.20;99.90;;;;;;5082961;28;20123;-80
2021/01/15 05:12:13;;;;;;;13.73;8.95;;;0.20;99.90;;;;;;5074776;28;20032;-80
2021/01/15 05:14:43;;;;;;;15.10;9.00;;;0.20;99.90;;;;;;5074945;28;20020;-80
2021/01/15 05:17:11;;;;;;;15.52;9.15;;;0.20;99.90;;;;;;5061416;28;20502;-80
2021/01/15 05:19:43;;;;;;;14.18;8.75;;;0.20;99.90;;;;;;5074556;28;20060;-80
2021/01/15 05:22:10;;;;;;;15.63;8.75;;;0.20;99.90;;;;;;5074197;28;20119;-80
2021/01/15 05:24:36;;;;;;;18.13;9.65;;;0.20;99.90;;;;;;5053845;28;20116;-80
2021/01/15 05:27:38;;;;;;;13.45;8.27;;;0.20;99.90;;;;;;5047237;28;20027;-79
2021/01/15 05:30:23;;;;;;;15.35;9.25;;;0.20;99.90;;;;;;5070973;28;20038;-80
2021/01/15 05:32:56;;;;;;;13.73;8.05;;;0.20;99.90;;;;;;5074260;28;20042;-80
2021/01/15 05:35:39;;;;;;;13.63;8.65;;;0.20;99.90;;;;;;5060794;28;20028;-80
2021/01/15 05:38:05;;;;;;;16.13;9.20;;;0.20;99.90;;;;;;5076921;28;20036;-81
2021/01/15 05:40:52;;;;;;;14.60;8.77;;;0.10;99.90;;;;;;5074770;28;20362;-81
2021/01/15 05:43:26;;;;;;;14.18;8.55;;;0.20;99.90;;;;;;5066219;28;20036;-81
2021/01/15 05:46:18;;;;;;;13.75;8.25;;;0.20;99.90;;;;;;5075552;28;20039;-80
2021/01/15 05:48:53;;;;;;;13.98;8.15;;;0.20;99.90;;;;;;5076205;28;20023;-80
2021/01/15 05:51:37;;;;;;;12.82;7.90;;;0.20;99.90;;;;;;5061122;28;20032;-80
2021/01/15 05:54:04;;;;;;;12.50;8.07;;;0.10;99.90;;;;;;5067663;28;20361;-80
2021/01/15 05:56:36;;;;;;;12.10;6.93;;;0.10;99.90;;;;;;5055720;28;20047;-79
2021/01/15 05:59:14;;;;;;;11.65;6.93;;;0.10;99.90;;;;;;5073495;28;20870;-80
2021/01/15 06:01:46;;;;;;;11.95;7.35;;;0.10;99.90;;;;;;5069155;28;20036;-80
2021/01/15 06:04:16;;;;;;;12.57;7.35;;;0.10;99.90;;;;;;5076488;28;20024;-81
2021/01/15 06:06:45;;;;;;;11.95;7.53;;;0.10;99.90;;;;;;5075200;28;20095;-80
2021/01/15 06:09:11;;;;;;;10.43;6.88;;;0.10;99.90;;;;;;5078257;28;20491;-80
2021/01/15 06:11:41;;;;;;;12.63;7.25;;;0.10;99.90;;;;;;5078875;28;20040;-80
2021/01/15 06:14:29;;;;;;;12.07;7.60;;;0.10;99.90;;;;;;5074236;28;20029;-80
2021/01/15 06:17:08;;;;;;;15.35;8.63;;;0.00;99.90;;;;;;5073681;28;20024;-80
2021/01/15 06:19:46;;;;;;;14.43;7.95;;;0.00;99.90;;;;;;5055903;28;20028;-80
2021/01/15 06:22:49;;;;;;;13.77;8.20;;;0.00;99.90;;;;;;5074141;28;20028;-80
2021/01/15 06:25:22;;;;;;;12.68;7.63;;;0.00;99.90;;;;;;5053343;28;20041;-80
2021/01/15 06:27:51;;;;;;;14.93;7.80;;;-0.10;99.90;;;;;;5072923;28;20580;-80
2021/01/15 06:30:23;;;;;;;14.15;8.55;;;-0.10;99.90;;;;;;5072421;28;20039;-79
2021/01/15 06:32:51;;;;;;;13.73;8.50;;;-0.10;99.90;;;;;;5071526;28;20159;-79
2021/01/15 06:35:26;;;;;;;13.63;8.77;;;-0.10;99.90;;;;;;5074605;28;20681;-80
2021/01/15 06:38:10;;;;;;;14.32;8.23;;;-0.10;99.90;;;;;;5073351;28;20595;-80
2021/01/15 06:40:40;;;;;;;13.77;7.97;;;-0.10;99.90;;;;;;5077358;28;20560;-80
2021/01/15 06:43:09;;;;;;;13.98;8.10;;;-0.10;99.90;;;;;;5084466;28;20046;-80
2021/01/15 06:45:49;;;;;;;13.55;8.73;;;-0.10;99.90;;;;;;5091429;28;20039;-79
2021/01/15 06:48:20;;;;;;;14.07;8.52;;;-0.10;99.90;;;;;;5092786;28;20421;-80
2021/01/15 06:50:51;;;;;;;14.85;8.50;;;-0.20;99.90;;;;;;5093405;28;20030;-80
2021/01/15 06:53:22;;;;;;;14.35;8.73;;;-0.20;99.90;;;;;;5085932;28;20032;-80
2021/01/15 06:56:04;;;;;;;14.13;8.50;;;-0.20;99.90;;;;;;5090023;28;20036;-80
2021/01/15 06:58:30;;;;;;;13.70;8.15;;;-0.30;99.90;;;;;;5074438;28;20050;-80
2021/01/15 07:01:19;;;;;;;15.18;8.82;;;-0.30;99.90;;;;;;5091299;28;20070;-79
2021/01/15 07:03:51;;;;;;;16.13;9.25;;;-0.20;99.90;;;;;;5091462;28;20111;-81
2021/01/15 07:06:26;;;;;;;9.57;6.45;;;-0.20;99.90;;;;;;5090284;28;20039;-80
2021/01/15 07:08:53;;;;;;;14.57;8.27;;;-0.20;99.90;;;;;;5076340;28;20497;-80
2021/01/15 07:11:22;;;;;;;13.88;8.48;;;-0.20;99.90;;;;;;5063714;28;20037;-80
2021/01/15 07:13:54;;;;;;;13.90;8.27;;;-0.30;99.90;;;;;;5061531;28;20028;-80
2021/01/15 07:16:32;;;;;;;15.38;9.00;;;-0.20;99.90;;;;;;5083843;28;20020;-80
2021/01/15 07:19:14;;;;;;;14.45;8.65;;;-0.20;99.90;;;;;;5091134;28;20138;-79
2021/01/15 07:22:01;;;;;;;11.93;7.57;;;-0.30;99.90;;;;;;5079740;28;20058;-79
2021/01/15 07:24:28;;;;;;;13.95;8.52;;;-0.30;99.90;;;;;;5076405;28;20032;-79
2021/01/15 07:26:58;;;;;;;13.25;7.70;;;-0.30;99.90;;;;;;5075342;28;20632;-79
2021/01/15 07:29:24;;;;;;;14.50;8.75;;;-0.30;99.90;;;;;;5090820;28;20445;-79
2021/01/15 07:31:57;;;;;;;13.00;8.10;;;-0.30;99.90;;;;;;5093116;28;20031;-79
2021/01/15 07:34:28;;;;;;;13.75;8.40;;;-0.30;99.90;;;;;;5089300;28;20029;-78
2021/01/15 07:36:54;;;;;;;14.23;8.32;;;-0.30;99.90;;;;;;5070096;28;20039;-79
2021/01/15 07:39:23;;;;;;;14.75;8.85;;;-0.30;99.90;;;;;;5092280;28;20033;-79
2021/01/15 07:41:53;;;;;;;14.38;8.57;;;-0.30;99.90;;;;;;5096199;28;20038;-80
2021/01/15 07:44:24;;;;;;;13.30;8.27;;;-0.30;99.90;;;;;;5077142;28;20057;-79
2021/01/15 07:46:59;;;;;;;10.02;5.97;;;-0.30;99.90;;;;;;5096997;28;20073;-79
2021/01/15 07:49:43;;;;;;;13.55;9.02;;;-0.30;99.90;;;;;;5080720;28;20027;-79
2021/01/15 07:52:11;;;;;;;15.38;8.25;;;-0.30;99.90;;;;;;5092535;28;20084;-79
2021/01/15 07:54:46;;;;;;;15.25;8.98;;;-0.40;99.90;;;;;;5084045;28;20034;-79
2021/01/15 07:57:18;;;;;;;15.15;8.93;;;-0.40;99.90;;;;;;5097172;28;20076;-79
2021/01/15 07:59:44;;;;;;;14.65;8.40;;;-0.40;99.90;;;;;;5080901;28;20047;-79
2021/01/15 08:02:12;;;;;;;15.70;9.50;;;-0.40;99.90;;;;;;5094198;28;20032;-79
2021/01/15 08:04:40;;;;;;;15.85;9.27;;;-0.40;99.90;;;;;;5092824;28;20062;-79
2021/01/15 08:07:12;;;;;;;17.52;10.20;;;-0.40;99.90;;;;;;5091142;28;20097;-79
2021/01/15 08:09:41;;;;;;;16.38;9.95;;;-0.40;99.90;;;;;;5091715;28;20019;-79
2021/01/15 08:12:07;;;;;;;16.50;9.70;;;-0.40;99.90;;;;;;5089026;28;20036;-79
2021/01/15 08:14:33;;;;;;;15.90;9.70;;;-0.40;99.90;;;;;;5063197;28;20480;-79
2021/01/15 08:17:03;;;;;;;16.30;10.23;;;-0.40;99.90;;;;;;5092445;28;20480;-79
2021/01/15 08:19:36;;;;;;;15.75;9.18;;;-0.40;99.90;;;;;;5097849;28;20027;-80
2021/01/15 08:22:02;;;;;;;14.93;8.68;;;-0.40;99.90;;;;;;5078676;28;20032;-80
2021/01/15 08:24:30;;;;;;;17.27;9.75;;;-0.30;99.90;;;;;;5088953;28;20028;-80
2021/01/15 08:26:58;;;;;;;15.18;9.32;;;-0.30;99.90;;;;;;5094446;28;20445;-80
2021/01/15 08:29:29;;;;;;;15.77;9.65;;;-0.30;99.90;;;;;;5075241;28;20020;-79
2021/01/15 08:31:58;;;;;;;15.60;9.13;;;-0.30;99.90;;;;;;5092170;28;20032;-79
2021/01/15 08:34:30;;;;;;;16.35;9.77;;;-0.30;99.90;;;;;;5089780;28;20019;-79
2021/01/15 08:36:57;;;;;;;18.27;10.55;;;-0.30;99.90;;;;;;5077637;28;20032;-79
2021/01/15 08:39:23;;;;;;;17.02;9.88;;;-0.20;99.90;;;;;;5078645;28;20034;-79
2021/01/15 08:41:58;;;;;;;16.80;10.43;;;-0.20;99.90;;;;;;5092166;28;20036;-79
2021/01/15 08:44:24;;;;;;;18.52;10.48;;;-0.30;99.90;;;;;;5092444;28;20051;-79
2021/01/15 08:46:57;;;;;;;16.95;10.10;;;-0.20;99.90;;;;;;5089932;28;20464;-79
2021/01/15 08:49:23;;;;;;;15.95;9.65;;;-0.20;99.90;;;;;;5074262;28;20161;-80
2021/01/15 08:51:51;;;;;;;15.88;9.50;;;-0.20;99.90;;;;;;5077978;28;20123;-79
2021/01/15 08:54:21;;;;;;;14.20;9.02;;;-0.20;99.90;;;;;;5091948;28;20035;-79
2021/01/15 08:56:48;;;;;;;15.07;9.45;;;-0.20;99.90;;;;;;5074522;28;20054;-79
2021/01/15 08:59:25;;;;;;;16.05;9.60;;;-0.20;99.90;;;;;;5079663;28;20116;-80
2021/01/15 09:01:51;;;;;;;16.20;9.68;;;-0.10;99.90;;;;;;5090404;28;20076;-80
2021/01/15 09:04:32;;;;;;;15.93;8.98;;;-0.10;99.90;;;;;;5074129;28;20033;-79
2021/01/15 09:07:03;;;;;;;15.30;9.45;;;-0.10;99.90;;;;;;5104987;27;20081;-80
2021/01/15 09:09:34;;;;;;;14.88;8.88;;;-0.10;99.90;;;;;;5090833;28;20552;-80
2021/01/15 09:12:08;;;;;;;14.88;8.90;;;0.00;99.90;;;;;;5086476;28;20043;-81
2021/01/15 09:14:35;;;;;;;15.57;8.82;;;0.00;99.90;;;;;;5063001;28;20054;-80
2021/01/15 09:17:04;;;;;;;15.65;9.07;;;0.00;99.90;;;;;;5094134;28;20028;-80
2021/01/15 09:19:34;;;;;;;14.93;8.68;;;0.00;99.90;;;;;;5093073;28;20028;-80
2021/01/15 09:22:04;;;;;;;13.70;8.70;;;0.00;99.90;;;;;;5091961;28;20134;-80
2021/01/15 09:24:31;;;;;;;14.38;8.70;;;0.00;99.90;;;;;;5079995;28;20044;-80
2021/01/15 09:27:02;;;;;;;14.02;8.50;;;0.10;99.90;;;;;;5074787;28;20020;-79
2021/01/15 09:29:28;;;;;;;14.25;8.75;;;0.10;99.90;;;;;;5107460;27;20459;-80
2021/01/15 09:31:54;;;;;;;14.68;8.43;;;0.10;99.90;;;;;;5084766;28;20047;-80
2021/01/15 09:34:24;;;;;;;12.80;8.38;;;0.20;99.90;;;;;;5095205;28;20035;-80
2021/01/15 09:36:53;;;;;;;13.82;8.48;;;0.20;99.90;;;;;;5063044;28;20039;-81
2021/01/15 09:39:19;;;;;;;14.02;8.68;;;0.30;99.90;;;;;;5093135;28;20459;-80
2021/01/15 09:41:46;;;;;;;14.02;8.60;;;0.30;99.90;;;;;;5074573;28;20027;-81
2021/01/15 09:44:15;;;;;;;15.15;9.18;;;0.30;99.90;;;;;;5061959;28;20048;-81
2021/01/15 09:46:43;;;;;;;16.02;9.30;;;0.40;99.90;;;;;;5090797;28;20025;-81
2021/01/15 09:49:09;;;;;;;14.43;9.10;;;0.40;99.90;;;;;;5094371;28;20028;-81
2021/01/15 09:51:39;;;;;;;13.82;8.38;;;0.40;99.90;;;;;;5092112;28;20476;-81
2021/01/15 09:54:10;;;;;;;13.77;8.43;;;0.40;99.90;;;;;;5090395;28;20986;-81
2021/01/15 09:56:47;;;;;;;14.48;8.85;;;0.40;99.90;;;;;;5089122;28;20036;-82
2021/01/15 09:59:16;;;;;;;14.85;8.80;;;0.40;99.90;;;;;;5075800;28;20076;-81
2021/01/15 10:01:45;;;;;;;12.70;7.72;;;0.50;99.90;;;;;;5089864;28;20032;-80
2021/01/15 10:04:12;;;;;;;12.77;8.63;;;0.50;99.90;;;;;;5091836;28;20454;-80
2021/01/15 10:06:44;;;;;;;14.07;8.80;;;0.50;99.90;;;;;;5094413;28;20039;-81
2021/01/15 10:09:14;;;;;;;13.40;8.63;;;0.50;99.90;;;;;;5088885;28;20577;-81
2021/01/15 10:11:44;;;;;;;14.77;8.75;;;0.60;99.90;;;;;;5090453;28;20103;-80
2021/01/15 10:14:13;;;;;;;14.80;8.95;;;0.60;99.90;;;;;;5091087;28;20035;-80
2021/01/15 10:16:40;;;;;;;15.20;9.13;;;0.60;99.90;;;;;;5096531;28;20263;-81
2021/01/15 10:19:05;;;;;;;13.93;8.50;;;0.70;99.90;;;;;;5093785;28;20028;-81
2021/01/15 10:21:35;;;;;;;12.95;8.25;;;0.70;99.90;;;;;;5081452;28;20039;-80
2021/01/15 10:24:01;;;;;;;14.45;9.40;;;0.70;99.90;;;;;;5092508;28;20444;-81
2021/01/15 10:26:30;;;;;;;12.43;8.45;;;0.80;99.90;;;;;;5074860;28;20145;-81
2021/01/15 10:28:57;;;;;;;13.73;8.85;;;0.80;99.90;;;;;;5092515;28;20024;-80
2021/01/15 10:31:29;;;;;;;13.45;8.60;;;0.80;99.90;;;;;;5077733;28;20031;-80
2021/01/15 10:33:58;;;;;;;15.43;9.20;;;0.90;99.90;;;;;;5093225;28;20479;-80
2021/01/15 10:36:27;;;;;;;14.48;9.15;;;0.90;99.90;;;;;;5095971;28;20058;-80
2021/01/15 10:38:55;;;;;;;13.32;8.60;;;0.90;99.90;;;;;;5093940;28;20103;-80
2021/01/15 10:41:34;;;;;;;14.55;9.15;;;0.90;99.90;;;;;;5097999;28;20024;-80
2021/01/15 10:44:06;;;;;;;14.10;9.43;;;1.00;99.90;;;;;;5072170;28;20024;-80
2021/01/15 10:46:44;;;;;;;13.52;8.70;;;1.00;99.90;;;;;;5071623;28;20039;-80
2021/01/15 10:49:16;;;;;;;15.18;9.77;;;1.00;99.90;;;;;;5097247;28;20116;-80
2021/01/15 10:51:52;;;;;;;13.25;8.98;;;1.10;99.90;;;;;;5095097;28;20020;-81
2021/01/15 10:54:17;;;;;;;14.40;8.77;;;1.10;99.90;;;;;;5091630;28;20039;-81
2021/01/15 10:56:45;;;;;;;13.68;9.07;;;1.20;99.90;;;;;;5088807;28;20388;-81
2021/01/15 10:59:11;;;;;;;14.02;9.38;;;1.20;99.90;;;;;;5090258;28;20527;-80
2021/01/15 11:01:48;;;;;;;14.38;9.45;;;1.20;99.90;;;;;;5094006;28;20111;-80
2021/01/15 11:04:15;;;;;;;13.93;9.00;;;1.30;99.90;;;;;;5062744;28;20020;-80
2021/01/15 11:06:44;;;;;;;15.55;10.07;;;1.20;99.90;;;;;;5094697;28;20475;-80
2021/01/15 11:09:14;;;;;;;15.32;10.27;;;1.30;99.90;;;;;;5095922;28;20070;-80
2021/01/15 11:11:51;;;;;;;14.35;9.25;;;1.30;99.90;;;;;;5092110;28;20660;-80
2021/01/15 11:14:20;;;;;;;14.50;9.80;;;1.40;99.90;;;;;;5091974;28;20044;-79
2021/01/15 11:16:48;;;;;;;16.73;10.60;;;1.40;99.90;;;;;;5093854;28;20449;-79
2021/01/15 11:19:14;;;;;;;17.27;10.68;;;1.40;99.90;;;;;;5082393;28;20047;-80
2021/01/15 11:21:40;;;;;;;15.55;9.77;;;1.50;99.90;;;;;;5071588;28;20032;-80
2021/01/15 11:24:13;;;;;;;15.02;9.10;;;1.50;99.90;;;;;;5093135;28;20043;-80
2021/01/15 11:26:41;;;;;;;15.07;9.93;;;1.60;99.90;;;;;;5093135;28;20098;-79
2021/01/15 11:29:08;;;;;;;14.98;9.65;;;1.60;99.90;;;;;;5083386;28;20542;-80
2021/01/15 11:31:36;;;;;;;14.57;9.48;;;1.60;99.90;;;;;;5089521;28;20035;-79
2021/01/15 11:34:04;;;;;;;16.50;10.07;;;1.60;99.90;;;;;;5083740;28;20048;-79
2021/01/15 11:36:30;;;;;;;15.27;9.85;;;1.60;99.90;;;;;;5092657;28;20036;-79
2021/01/15 11:39:00;;;;;;;17.00;9.82;;;1.70;99.90;;;;;;5093506;28;20797;-79
2021/01/15 11:41:29;;;;;;;16.77;10.65;;;1.60;99.90;;;;;;5092459;28;20511;-80
2021/01/15 11:43:54;;;;;;;15.18;9.50;;;1.70;99.90;;;;;;5093377;28;20024;-80
2021/01/15 11:46:22;;;;;;;16.85;10.57;;;1.70;99.90;;;;;;5092759;28;20029;-79
2021/01/15 11:48:48;;;;;;;14.90;10.18;;;1.70;99.90;;;;;;5092533;28;20019;-79
2021/01/15 11:51:17;;;;;;;15.60;10.82;;;1.70;99.90;;;;;;5094106;28;20151;-79
2021/01/15 11:53:47;;;;;;;17.02;10.48;;;1.70;99.90;;;;;;5093755;28;20350;-79
2021/01/15 11:56:17;;;;;;;16.92;10.60;;;1.70;99.90;;;;;;5090719;28;20029;-79
2021/01/15 11:58:43;;;;;;;16.65;10.45;;;1.70;99.90;;;;;;5091437;28;20030;-79
2021/01/15 12:01:11;;;;;;;16.42;10.65;;;1.70;99.90;;;;;;5092759;28;20032;-79
2021/01/15 12:03:41;;;;;;;17.48;11.35;;;1.70;99.90;;;;;;5093019;28;20027;-78
2021/01/15 12:06:07;;;;;;;16.05;10.35;;;1.70;99.90;;;;;;5093132;28;20080;-79
2021/01/15 12:08:35;;;;;;;17.75;11.13;;;1.70;99.90;;;;;;5091930;28;20119;-79
2021/01/15 12:11:06;;;;;;;17.80;11.38;;;1.80;99.90;;;;;;5089529;28;20107;-79
2021/01/15 12:13:32;;;;;;;18.48;11.00;;;1.80;99.90;;;;;;5092406;28;20027;-78
2021/01/15 12:16:03;;;;;;;16.67;10.48;;;1.70;99.90;;;;;;5078439;28;20513;-78
2021/01/15 12:18:31;;;;;;;17.52;10.88;;;1.80;99.90;;;;;;5076186;28;20026;-78
2021/01/15 12:20:59;;;;;;;20.35;11.77;;;1.80;99.90;;;;;;5080411;28;20158;-78
2021/01/15 12:23:27;;;;;;;18.45;11.43;;;1.80;99.90;;;;;;5091606;28;20346;-80
2021/01/15 12:25:53;;;;;;;18.83;11.80;;;1.80;99.90;;;;;;5091552;28;20059;-78
2021/01/15 12:28:24;;;;;;;19.40;12.48;;;1.80;99.90;;;;;;5095114;28;20080;-78
2021/01/15 12:30:53;;;;;;;21.55;12.85;;;1.70;99.90;;;;;;5095241;28;20028;-78
2021/01/15 12:33:21;;;;;;;18.10;11.90;;;1.80;99.90;;;;;;5088934;28;20023;-78
2021/01/15 12:35:50;;;;;;;21.02;12.52;;;1.70;99.90;;;;;;5078736;28;20119;-78
2021/01/15 12:38:20;;;;;;;21.50;12.52;;;1.80;99.90;;;;;;5093996;28;20058;-78
2021/01/15 12:40:48;;;;;;;18.60;11.27;;;1.80;99.90;;;;;;5094669;28;20039;-77
2021/01/15 12:43:19;;;;;;;21.00;13.00;;;1.80;99.90;;;;;;5090548;28;20092;-78
2021/01/15 12:45:48;;;;;;;21.02;12.77;;;1.90;99.90;;;;;;5079883;28;20528;-77
2021/01/15 12:48:14;;;;;;;20.77;12.48;;;1.80;99.90;;;;;;5091263;28;20027;-78
2021/01/15 12:50:43;;;;;;;18.85;12.18;;;1.80;99.90;;;;;;5088512;28;20020;-77
2021/01/15 12:53:14;;;;;;;21.58;13.23;;;1.80;99.90;;;;;;5089754;28;20030;-78
2021/01/15 12:55:42;;;;;;;22.20;13.05;;;1.70;99.90;;;;;;5094958;28;20024;-77
2021/01/15 12:58:10;;;;;;;19.95;12.32;;;1.70;99.90;;;;;;5092387;28;20125;-78
2021/01/15 13:00:38;;;;;;;21.73;13.30;;;1.80;99.90;;;;;;5094155;28;20101;-78